sensor_id;sensor_type;location;lat;lon;timestamp;temperature;humidity
50955;DHT22;36966;48.064;-0.792;2022-11-27T00:01:18;17.80;52.40
50955;DHT22;36966;48.064;-0.792;2022-11-27T00:03:39;17.80;52.40
50955;DHT22;36966;48.064;-0.792;2022-11-27T00:05:59;17.80;52.50
50955;DHT22;36966;48.064;-0.792;2022-11-27T00:08:18;17.80;52.40
50955;DHT22;36966;48.064;-0.792;2022-11-27T00:10:37;17.70;52.50
50955;DHT22;36966;48.064;-0.792;2022-11-27T00:12:56;17.80;52.60
50955;DHT22;36966;48.064;-0.792;2022-11-27T00:15:15;17.70;52.50
50955;DHT22;36966;48.064;-0.792;2022-11-27T00:17:35;17.70;52.60
50955;DHT22;36966;48.064;-0.792;2022-11-27T00:19:54;17.70;52.80
50955;DHT22;36966;48.064;-0.792;2022-11-27T00:22:13;17.60;52.60
50955;DHT22;36966;48.064;-0.792;2022-11-27T00:24:32;17.60;52.70
50955;DHT22;36966;48.064;-0.792;2022-11-27T00:26:51;17.60;52.60
50955;DHT22;36966;48.064;-0.792;2022-11-27T00:29:11;17.70;52.60
50955;DHT22;36966;48.064;-0.792;2022-11-27T00:31:31;17.60;52.60
50955;DHT22;36966;48.064;-0.792;2022-11-27T00:33:53;17.70;52.60
50955;DHT22;36966;48.064;-0.792;2022-11-27T00:36:14;17.60;52.40
50955;DHT22;36966;48.064;-0.792;2022-11-27T00:38:33;17.60;52.70
50955;DHT22;36966;48.064;-0.792;2022-11-27T00:40:53;17.60;52.70
50955;DHT22;36966;48.064;-0.792;2022-11-27T00:43:12;17.60;52.60
50955;DHT22;36966;48.064;-0.792;2022-11-27T00:45:31;17.60;52.70
50955;DHT22;36966;48.064;-0.792;2022-11-27T00:47:50;17.60;52.60
50955;DHT22;36966;48.064;-0.792;2022-11-27T00:50:10;17.50;52.30
50955;DHT22;36966;48.064;-0.792;2022-11-27T00:52:29;17.40;52.60
50955;DHT22;36966;48.064;-0.792;2022-11-27T00:54:48;17.40;52.80
50955;DHT22;36966;48.064;-0.792;2022-11-27T00:57:07;17.50;52.70
50955;DHT22;36966;48.064;-0.792;2022-11-27T00:59:26;17.40;52.70
50955;DHT22;36966;48.064;-0.792;2022-11-27T01:01:45;17.40;53.00
50955;DHT22;36966;48.064;-0.792;2022-11-27T01:04:07;17.50;52.80
50955;DHT22;36966;48.064;-0.792;2022-11-27T01:06:27;17.50;52.90
50955;DHT22;36966;48.064;-0.792;2022-11-27T01:08:46;17.50;52.90
50955;DHT22;36966;48.064;-0.792;2022-11-27T01:11:06;17.50;52.80
50955;DHT22;36966;48.064;-0.792;2022-11-27T01:13:27;17.50;52.80
50955;DHT22;36966;48.064;-0.792;2022-11-27T01:16:15;17.50;52.80
50955;DHT22;36966;48.064;-0.792;2022-11-27T01:18:36;17.50;53.00
50955;DHT22;36966;48.064;-0.792;2022-11-27T01:20:56;17.50;52.90
50955;DHT22;36966;48.064;-0.792;2022-11-27T01:23:15;17.50;52.90
50955;DHT22;36966;48.064;-0.792;2022-11-27T01:25:35;17.50;53.00
50955;DHT22;36966;48.064;-0.792;2022-11-27T01:27:54;17.50;52.80
50955;DHT22;36966;48.064;-0.792;2022-11-27T01:30:14;17.30;53.20
50955;DHT22;36966;48.064;-0.792;2022-11-27T01:32:33;17.20;53.00
50955;DHT22;36966;48.064;-0.792;2022-11-27T01:34:52;17.20;53.50
50955;DHT22;36966;48.064;-0.792;2022-11-27T01:37:11;17.30;53.50
50955;DHT22;36966;48.064;-0.792;2022-11-27T01:39:30;17.40;53.50
50955;DHT22;36966;48.064;-0.792;2022-11-27T01:41:49;17.40;53.30
50955;DHT22;36966;48.064;-0.792;2022-11-27T01:46:45;17.40;53.00
50955;DHT22;36966;48.064;-0.792;2022-11-27T01:51:29;17.30;53.40
50955;DHT22;36966;48.064;-0.792;2022-11-27T01:53:51;17.30;53.30
50955;DHT22;36966;48.064;-0.792;2022-11-27T01:56:11;17.30;53.50
50955;DHT22;36966;48.064;-0.792;2022-11-27T01:58:31;17.30;53.50
50955;DHT22;36966;48.064;-0.792;2022-11-27T02:00:51;17.30;53.60
50955;DHT22;36966;48.064;-0.792;2022-11-27T02:03:12;17.30;53.70
50955;DHT22;36966;48.064;-0.792;2022-11-27T02:05:31;17.30;53.70
50955;DHT22;36966;48.064;-0.792;2022-11-27T02:07:52;17.30;53.80
50955;DHT22;36966;48.064;-0.792;2022-11-27T02:10:12;17.20;54.10
50955;DHT22;36966;48.064;-0.792;2022-11-27T02:15:53;17.10;54.30
50955;DHT22;36966;48.064;-0.792;2022-11-27T02:18:53;17.10;54.30
50955;DHT22;36966;48.064;-0.792;2022-11-27T02:26:47;17.20;54.50
50955;DHT22;36966;48.064;-0.792;2022-11-27T02:29:13;17.20;54.50
50955;DHT22;36966;48.064;-0.792;2022-11-27T02:31:46;17.10;54.80
50955;DHT22;36966;48.064;-0.792;2022-11-27T02:36:34;17.30;54.60
50955;DHT22;36966;48.064;-0.792;2022-11-27T02:39:08;17.30;54.60
50955;DHT22;36966;48.064;-0.792;2022-11-27T02:41:33;17.30;54.50
50955;DHT22;36966;48.064;-0.792;2022-11-27T02:43:56;17.30;54.40
50955;DHT22;36966;48.064;-0.792;2022-11-27T02:46:18;17.20;54.50
50955;DHT22;36966;48.064;-0.792;2022-11-27T02:48:46;17.10;55.00
50955;DHT22;36966;48.064;-0.792;2022-11-27T02:51:06;17.10;55.30
50955;DHT22;36966;48.064;-0.792;2022-11-27T02:53:31;17.10;55.20
50955;DHT22;36966;48.064;-0.792;2022-11-27T02:55:51;17.10;55.20
50955;DHT22;36966;48.064;-0.792;2022-11-27T02:58:17;17.20;55.00
50955;DHT22;36966;48.064;-0.792;2022-11-27T03:00:39;17.20;55.10
50955;DHT22;36966;48.064;-0.792;2022-11-27T03:03:03;17.10;55.20
50955;DHT22;36966;48.064;-0.792;2022-11-27T03:05:27;16.90;55.50
50955;DHT22;36966;48.064;-0.792;2022-11-27T03:10:56;17.00;55.50
50955;DHT22;36966;48.064;-0.792;2022-11-27T03:13:17;16.90;55.60
50955;DHT22;36966;48.064;-0.792;2022-11-27T03:15:51;16.90;55.80
50955;DHT22;36966;48.064;-0.792;2022-11-27T03:18:20;17.00;55.60
50955;DHT22;36966;48.064;-0.792;2022-11-27T03:20:42;17.00;55.50
50955;DHT22;36966;48.064;-0.792;2022-11-27T03:23:03;17.10;55.40
50955;DHT22;36966;48.064;-0.792;2022-11-27T03:25:22;17.00;55.50
50955;DHT22;36966;48.064;-0.792;2022-11-27T03:27:55;17.00;55.50
50955;DHT22;36966;48.064;-0.792;2022-11-27T03:30:15;17.00;55.60
50955;DHT22;36966;48.064;-0.792;2022-11-27T03:32:34;16.90;55.90
50955;DHT22;36966;48.064;-0.792;2022-11-27T03:34:53;17.00;55.80
50955;DHT22;36966;48.064;-0.792;2022-11-27T03:37:13;17.10;55.80
50955;DHT22;36966;48.064;-0.792;2022-11-27T03:39:33;17.00;55.70
50955;DHT22;36966;48.064;-0.792;2022-11-27T03:46:45;17.00;55.80
50955;DHT22;36966;48.064;-0.792;2022-11-27T03:49:09;17.00;55.70
50955;DHT22;36966;48.064;-0.792;2022-11-27T03:51:40;17.00;55.90
50955;DHT22;36966;48.064;-0.792;2022-11-27T03:56:58;17.10;55.60
50955;DHT22;36966;48.064;-0.792;2022-11-27T03:59:22;17.10;55.70
50955;DHT22;36966;48.064;-0.792;2022-11-27T04:01:43;17.10;55.50
50955;DHT22;36966;48.064;-0.792;2022-11-27T04:04:03;17.20;55.50
50955;DHT22;36966;48.064;-0.792;2022-11-27T04:06:22;17.10;55.60
50955;DHT22;36966;48.064;-0.792;2022-11-27T04:08:43;17.10;55.90
50955;DHT22;36966;48.064;-0.792;2022-11-27T04:11:03;17.20;55.80
50955;DHT22;36966;48.064;-0.792;2022-11-27T04:13:23;17.20;55.50
50955;DHT22;36966;48.064;-0.792;2022-11-27T04:15:42;17.20;55.30
50955;DHT22;36966;48.064;-0.792;2022-11-27T04:18:01;17.20;55.20
50955;DHT22;36966;48.064;-0.792;2022-11-27T04:20:20;17.20;55.20
50955;DHT22;36966;48.064;-0.792;2022-11-27T04:22:39;17.20;55.20
50955;DHT22;36966;48.064;-0.792;2022-11-27T04:24:59;17.30;55.20
50955;DHT22;36966;48.064;-0.792;2022-11-27T04:27:18;17.20;55.30
50955;DHT22;36966;48.064;-0.792;2022-11-27T04:29:37;17.20;55.30
50955;DHT22;36966;48.064;-0.792;2022-11-27T04:31:56;17.20;55.20
50955;DHT22;36966;48.064;-0.792;2022-11-27T04:34:15;17.20;55.20
50955;DHT22;36966;48.064;-0.792;2022-11-27T04:36:34;17.20;55.30
50955;DHT22;36966;48.064;-0.792;2022-11-27T04:38:54;17.20;55.30
50955;DHT22;36966;48.064;-0.792;2022-11-27T04:41:13;17.20;55.30
50955;DHT22;36966;48.064;-0.792;2022-11-27T04:43:32;17.20;55.30
50955;DHT22;36966;48.064;-0.792;2022-11-27T04:45:51;17.20;55.30
50955;DHT22;36966;48.064;-0.792;2022-11-27T04:48:10;17.20;55.30
50955;DHT22;36966;48.064;-0.792;2022-11-27T04:50:30;17.20;55.40
50955;DHT22;36966;48.064;-0.792;2022-11-27T04:52:49;17.20;55.40
50955;DHT22;36966;48.064;-0.792;2022-11-27T04:55:09;17.20;55.40
50955;DHT22;36966;48.064;-0.792;2022-11-27T04:57:28;17.20;55.40
50955;DHT22;36966;48.064;-0.792;2022-11-27T04:59:47;17.20;55.40
50955;DHT22;36966;48.064;-0.792;2022-11-27T05:02:06;17.20;55.40
50955;DHT22;36966;48.064;-0.792;2022-11-27T05:04:25;17.20;55.60
50955;DHT22;36966;48.064;-0.792;2022-11-27T05:06:44;17.20;55.50
50955;DHT22;36966;48.064;-0.792;2022-11-27T05:09:04;17.20;55.50
50955;DHT22;36966;48.064;-0.792;2022-11-27T05:11:24;17.20;55.30
50955;DHT22;36966;48.064;-0.792;2022-11-27T05:13:43;17.20;55.40
50955;DHT22;36966;48.064;-0.792;2022-11-27T05:16:03;17.20;55.40
50955;DHT22;36966;48.064;-0.792;2022-11-27T05:18:23;17.30;55.30
50955;DHT22;36966;48.064;-0.792;2022-11-27T05:20:43;17.20;55.30
50955;DHT22;36966;48.064;-0.792;2022-11-27T05:23:02;17.30;55.30
50955;DHT22;36966;48.064;-0.792;2022-11-27T05:25:21;17.30;55.30
50955;DHT22;36966;48.064;-0.792;2022-11-27T05:27:40;17.30;55.20
50955;DHT22;36966;48.064;-0.792;2022-11-27T05:29:59;17.30;55.20
50955;DHT22;36966;48.064;-0.792;2022-11-27T05:32:18;17.30;55.20
50955;DHT22;36966;48.064;-0.792;2022-11-27T05:34:37;17.40;55.20
50955;DHT22;36966;48.064;-0.792;2022-11-27T05:36:56;17.40;55.10
50955;DHT22;36966;48.064;-0.792;2022-11-27T05:39:15;17.40;55.10
50955;DHT22;36966;48.064;-0.792;2022-11-27T05:41:36;17.40;55.10
50955;DHT22;36966;48.064;-0.792;2022-11-27T05:43:56;17.40;55.00
50955;DHT22;36966;48.064;-0.792;2022-11-27T05:46:17;17.40;55.00
50955;DHT22;36966;48.064;-0.792;2022-11-27T05:48:37;17.40;54.90
50955;DHT22;36966;48.064;-0.792;2022-11-27T05:50:56;17.40;54.90
50955;DHT22;36966;48.064;-0.792;2022-11-27T05:53:16;17.50;54.90
50955;DHT22;36966;48.064;-0.792;2022-11-27T05:55:35;17.50;54.90
50955;DHT22;36966;48.064;-0.792;2022-11-27T05:57:54;17.50;54.90
50955;DHT22;36966;48.064;-0.792;2022-11-27T06:00:14;17.50;54.90
50955;DHT22;36966;48.064;-0.792;2022-11-27T06:02:33;17.50;54.90
50955;DHT22;36966;48.064;-0.792;2022-11-27T06:04:52;17.50;54.90
50955;DHT22;36966;48.064;-0.792;2022-11-27T06:07:11;17.50;54.80
50955;DHT22;36966;48.064;-0.792;2022-11-27T06:09:30;17.50;54.80
50955;DHT22;36966;48.064;-0.792;2022-11-27T06:11:49;17.50;54.90
50955;DHT22;36966;48.064;-0.792;2022-11-27T06:14:09;17.50;54.80
50955;DHT22;36966;48.064;-0.792;2022-11-27T06:16:29;17.60;54.80
50955;DHT22;36966;48.064;-0.792;2022-11-27T06:18:50;17.60;54.80
50955;DHT22;36966;48.064;-0.792;2022-11-27T06:21:12;17.60;54.90
50955;DHT22;36966;48.064;-0.792;2022-11-27T06:23:31;17.60;54.90
50955;DHT22;36966;48.064;-0.792;2022-11-27T06:25:51;17.70;54.90
50955;DHT22;36966;48.064;-0.792;2022-11-27T06:28:10;17.70;54.80
50955;DHT22;36966;48.064;-0.792;2022-11-27T06:30:29;17.70;54.80
50955;DHT22;36966;48.064;-0.792;2022-11-27T06:32:48;17.70;54.80
50955;DHT22;36966;48.064;-0.792;2022-11-27T06:35:08;17.70;54.80
50955;DHT22;36966;48.064;-0.792;2022-11-27T06:37:27;17.70;54.80
50955;DHT22;36966;48.064;-0.792;2022-11-27T06:39:47;17.70;54.80
50955;DHT22;36966;48.064;-0.792;2022-11-27T06:42:06;17.70;54.80
50955;DHT22;36966;48.064;-0.792;2022-11-27T06:44:26;17.70;54.80
50955;DHT22;36966;48.064;-0.792;2022-11-27T06:46:45;17.70;54.80
50955;DHT22;36966;48.064;-0.792;2022-11-27T06:49:04;17.70;54.80
50955;DHT22;36966;48.064;-0.792;2022-11-27T06:51:27;17.70;54.80
50955;DHT22;36966;48.064;-0.792;2022-11-27T06:53:47;17.70;54.80
50955;DHT22;36966;48.064;-0.792;2022-11-27T06:56:12;17.70;54.80
50955;DHT22;36966;48.064;-0.792;2022-11-27T06:58:31;17.70;54.90
50955;DHT22;36966;48.064;-0.792;2022-11-27T07:00:56;17.70;54.80
50955;DHT22;36966;48.064;-0.792;2022-11-27T07:03:16;17.70;54.80
50955;DHT22;36966;48.064;-0.792;2022-11-27T07:05:36;17.70;54.80
50955;DHT22;36966;48.064;-0.792;2022-11-27T07:07:56;17.70;54.80
50955;DHT22;36966;48.064;-0.792;2022-11-27T07:10:16;17.70;54.80
50955;DHT22;36966;48.064;-0.792;2022-11-27T07:12:35;17.70;54.80
50955;DHT22;36966;48.064;-0.792;2022-11-27T07:14:54;17.70;54.90
50955;DHT22;36966;48.064;-0.792;2022-11-27T07:17:13;17.70;54.90
50955;DHT22;36966;48.064;-0.792;2022-11-27T07:19:32;17.70;54.90
50955;DHT22;36966;48.064;-0.792;2022-11-27T07:21:51;17.70;54.90
50955;DHT22;36966;48.064;-0.792;2022-11-27T07:24:10;17.70;54.90
50955;DHT22;36966;48.064;-0.792;2022-11-27T07:26:30;17.70;55.00
50955;DHT22;36966;48.064;-0.792;2022-11-27T07:28:49;17.70;55.00
50955;DHT22;36966;48.064;-0.792;2022-11-27T07:31:10;17.70;55.00
50955;DHT22;36966;48.064;-0.792;2022-11-27T07:33:29;17.70;55.00
50955;DHT22;36966;48.064;-0.792;2022-11-27T07:35:49;17.70;55.00
50955;DHT22;36966;48.064;-0.792;2022-11-27T07:38:08;17.70;55.00
50955;DHT22;36966;48.064;-0.792;2022-11-27T07:40:27;17.70;55.10
50955;DHT22;36966;48.064;-0.792;2022-11-27T07:42:46;17.70;55.10
50955;DHT22;36966;48.064;-0.792;2022-11-27T07:45:09;17.70;55.10
50955;DHT22;36966;48.064;-0.792;2022-11-27T07:47:29;17.70;55.10
50955;DHT22;36966;48.064;-0.792;2022-11-27T07:49:48;17.70;55.10
50955;DHT22;36966;48.064;-0.792;2022-11-27T07:52:07;17.70;55.10
50955;DHT22;36966;48.064;-0.792;2022-11-27T07:54:26;17.70;55.10
50955;DHT22;36966;48.064;-0.792;2022-11-27T07:56:46;17.70;55.10
50955;DHT22;36966;48.064;-0.792;2022-11-27T07:59:05;17.70;55.20
50955;DHT22;36966;48.064;-0.792;2022-11-27T08:01:24;17.70;55.10
50955;DHT22;36966;48.064;-0.792;2022-11-27T08:03:43;17.70;55.10
50955;DHT22;36966;48.064;-0.792;2022-11-27T08:06:03;17.70;55.20
50955;DHT22;36966;48.064;-0.792;2022-11-27T08:08:23;17.70;55.20
50955;DHT22;36966;48.064;-0.792;2022-11-27T08:10:42;17.70;55.20
50955;DHT22;36966;48.064;-0.792;2022-11-27T08:13:02;17.70;55.20
50955;DHT22;36966;48.064;-0.792;2022-11-27T08:15:21;17.70;55.20
50955;DHT22;36966;48.064;-0.792;2022-11-27T08:17:40;17.70;55.20
50955;DHT22;36966;48.064;-0.792;2022-11-27T08:19:59;17.70;55.30
50955;DHT22;36966;48.064;-0.792;2022-11-27T08:22:18;17.70;55.30
50955;DHT22;36966;48.064;-0.792;2022-11-27T08:24:38;17.70;55.40
50955;DHT22;36966;48.064;-0.792;2022-11-27T08:27:00;17.70;55.40
50955;DHT22;36966;48.064;-0.792;2022-11-27T08:29:19;17.70;55.40
50955;DHT22;36966;48.064;-0.792;2022-11-27T08:31:38;17.70;55.30
50955;DHT22;36966;48.064;-0.792;2022-11-27T08:33:58;17.70;55.50
50955;DHT22;36966;48.064;-0.792;2022-11-27T08:36:17;17.70;55.60
50955;DHT22;36966;48.064;-0.792;2022-11-27T08:38:36;17.70;55.50
50955;DHT22;36966;48.064;-0.792;2022-11-27T08:40:57;17.70;55.50
50955;DHT22;36966;48.064;-0.792;2022-11-27T08:43:17;17.70;55.50
50955;DHT22;36966;48.064;-0.792;2022-11-27T08:45:39;17.70;55.60
50955;DHT22;36966;48.064;-0.792;2022-11-27T08:47:58;17.70;55.60
50955;DHT22;36966;48.064;-0.792;2022-11-27T08:50:18;17.70;55.60
50955;DHT22;36966;48.064;-0.792;2022-11-27T08:52:37;17.70;55.60
50955;DHT22;36966;48.064;-0.792;2022-11-27T08:54:57;17.70;55.70
50955;DHT22;36966;48.064;-0.792;2022-11-27T08:57:17;17.70;55.70
50955;DHT22;36966;48.064;-0.792;2022-11-27T08:59:36;17.70;55.70
50955;DHT22;36966;48.064;-0.792;2022-11-27T09:01:55;17.70;55.60
50955;DHT22;36966;48.064;-0.792;2022-11-27T09:04:14;17.70;55.70
50955;DHT22;36966;48.064;-0.792;2022-11-27T09:06:33;17.70;55.80
50955;DHT22;36966;48.064;-0.792;2022-11-27T09:08:58;17.70;55.80
50955;DHT22;36966;48.064;-0.792;2022-11-27T09:11:19;17.70;55.70
50955;DHT22;36966;48.064;-0.792;2022-11-27T09:13:39;17.70;55.80
50955;DHT22;36966;48.064;-0.792;2022-11-27T09:15:58;17.70;55.80
50955;DHT22;36966;48.064;-0.792;2022-11-27T09:18:18;17.70;55.80
50955;DHT22;36966;48.064;-0.792;2022-11-27T09:20:37;17.70;55.80
50955;DHT22;36966;48.064;-0.792;2022-11-27T09:22:57;17.70;55.90
50955;DHT22;36966;48.064;-0.792;2022-11-27T09:25:17;17.70;55.90
50955;DHT22;36966;48.064;-0.792;2022-11-27T09:27:36;17.70;55.90
50955;DHT22;36966;48.064;-0.792;2022-11-27T09:29:56;17.70;55.90
50955;DHT22;36966;48.064;-0.792;2022-11-27T09:32:15;17.70;55.90
50955;DHT22;36966;48.064;-0.792;2022-11-27T09:34:35;17.70;55.90
50955;DHT22;36966;48.064;-0.792;2022-11-27T09:36:54;17.70;55.90
50955;DHT22;36966;48.064;-0.792;2022-11-27T09:39:13;17.70;55.90
50955;DHT22;36966;48.064;-0.792;2022-11-27T09:41:42;17.70;55.90
50955;DHT22;36966;48.064;-0.792;2022-11-27T09:46:36;17.70;56.00
50955;DHT22;36966;48.064;-0.792;2022-11-27T09:49:00;17.70;56.10
50955;DHT22;36966;48.064;-0.792;2022-11-27T09:51:30;17.80;56.10
50955;DHT22;36966;48.064;-0.792;2022-11-27T09:56:38;17.80;56.30
50955;DHT22;36966;48.064;-0.792;2022-11-27T09:58:59;17.70;56.10
50955;DHT22;36966;48.064;-0.792;2022-11-27T10:01:28;17.80;56.20
50955;DHT22;36966;48.064;-0.792;2022-11-27T10:03:48;17.80;56.40
50955;DHT22;36966;48.064;-0.792;2022-11-27T10:06:36;17.70;56.30
50955;DHT22;36966;48.064;-0.792;2022-11-27T10:12:12;17.70;56.40
50955;DHT22;36966;48.064;-0.792;2022-11-27T10:15:00;17.80;56.60
50955;DHT22;36966;48.064;-0.792;2022-11-27T10:17:32;17.70;56.50
50955;DHT22;36966;48.064;-0.792;2022-11-27T10:22:41;17.70;56.60
50955;DHT22;36966;48.064;-0.792;2022-11-27T10:25:42;17.80;56.70
50955;DHT22;36966;48.064;-0.792;2022-11-27T10:31:16;17.70;56.90
50955;DHT22;36966;48.064;-0.792;2022-11-27T10:34:01;17.70;57.10
50955;DHT22;36966;48.064;-0.792;2022-11-27T10:36:34;17.70;57.10
50955;DHT22;36966;48.064;-0.792;2022-11-27T10:38:56;17.70;57.00
50955;DHT22;36966;48.064;-0.792;2022-11-27T10:41:39;17.80;57.20
50955;DHT22;36966;48.064;-0.792;2022-11-27T10:44:11;17.70;57.20
50955;DHT22;36966;48.064;-0.792;2022-11-27T10:46:36;17.70;57.00
50955;DHT22;36966;48.064;-0.792;2022-11-27T10:48:57;17.70;57.20
50955;DHT22;36966;48.064;-0.792;2022-11-27T10:51:20;17.70;57.20
50955;DHT22;36966;48.064;-0.792;2022-11-27T10:53:41;17.70;57.30
50955;DHT22;36966;48.064;-0.792;2022-11-27T11:01:15;17.70;57.30
50955;DHT22;36966;48.064;-0.792;2022-11-27T11:03:34;17.70;57.50
50955;DHT22;36966;48.064;-0.792;2022-11-27T11:05:59;17.70;58.90
50955;DHT22;36966;48.064;-0.792;2022-11-27T11:08:19;17.70;59.40
50955;DHT22;36966;48.064;-0.792;2022-11-27T11:11:05;17.70;58.90
50955;DHT22;36966;48.064;-0.792;2022-11-27T11:13:44;17.70;58.20
50955;DHT22;36966;48.064;-0.792;2022-11-27T11:18:31;17.70;58.20
50955;DHT22;36966;48.064;-0.792;2022-11-27T11:21:03;17.80;58.00
50955;DHT22;36966;48.064;-0.792;2022-11-27T11:23:33;17.80;57.70
50955;DHT22;36966;48.064;-0.792;2022-11-27T11:25:56;17.80;57.70
50955;DHT22;36966;48.064;-0.792;2022-11-27T11:28:18;17.80;57.50
50955;DHT22;36966;48.064;-0.792;2022-11-27T11:30:38;17.80;57.60
50955;DHT22;36966;48.064;-0.792;2022-11-27T11:33:02;17.80;57.50
50955;DHT22;36966;48.064;-0.792;2022-11-27T11:35:31;17.80;57.50
50955;DHT22;36966;48.064;-0.792;2022-11-27T11:37:52;17.80;57.50
50955;DHT22;36966;48.064;-0.792;2022-11-27T11:42:33;17.80;57.60
50955;DHT22;36966;48.064;-0.792;2022-11-27T11:45:00;17.80;57.60
50955;DHT22;36966;48.064;-0.792;2022-11-27T11:47:22;17.80;57.70
50955;DHT22;36966;48.064;-0.792;2022-11-27T11:49:43;17.80;57.80
50955;DHT22;36966;48.064;-0.792;2022-11-27T11:55:02;17.80;57.90
50955;DHT22;36966;48.064;-0.792;2022-11-27T12:00:08;17.80;58.20
50955;DHT22;36966;48.064;-0.792;2022-11-27T12:02:38;17.80;58.10
50955;DHT22;36966;48.064;-0.792;2022-11-27T12:15:31;17.70;58.50
50955;DHT22;36966;48.064;-0.792;2022-11-27T12:23:31;17.70;58.50
50955;DHT22;36966;48.064;-0.792;2022-11-27T12:45:05;17.80;58.30
50955;DHT22;36966;48.064;-0.792;2022-11-27T12:47:41;17.80;58.20
50955;DHT22;36966;48.064;-0.792;2022-11-27T12:50:09;17.80;58.20
50955;DHT22;36966;48.064;-0.792;2022-11-27T12:52:37;17.80;58.30
50955;DHT22;36966;48.064;-0.792;2022-11-27T12:57:39;17.80;58.40
50955;DHT22;36966;48.064;-0.792;2022-11-27T13:00:23;17.80;58.30
50955;DHT22;36966;48.064;-0.792;2022-11-27T13:03:14;17.80;58.30
50955;DHT22;36966;48.064;-0.792;2022-11-27T13:05:40;17.80;58.20
50955;DHT22;36966;48.064;-0.792;2022-11-27T13:08:28;17.80;58.10
50955;DHT22;36966;48.064;-0.792;2022-11-27T13:11:00;17.70;58.10
50955;DHT22;36966;48.064;-0.792;2022-11-27T13:13:40;17.80;58.10
50955;DHT22;36966;48.064;-0.792;2022-11-27T13:16:10;17.80;58.10
50955;DHT22;36966;48.064;-0.792;2022-11-27T13:18:35;17.80;58.30
50955;DHT22;36966;48.064;-0.792;2022-11-27T13:20:58;17.80;58.30
50955;DHT22;36966;48.064;-0.792;2022-11-27T13:23:19;17.80;58.30
50955;DHT22;36966;48.064;-0.792;2022-11-27T13:25:44;17.80;58.40
50955;DHT22;36966;48.064;-0.792;2022-11-27T13:28:05;17.80;58.40
50955;DHT22;36966;48.064;-0.792;2022-11-27T13:30:27;17.80;58.30
50955;DHT22;36966;48.064;-0.792;2022-11-27T13:32:54;17.80;58.40
50955;DHT22;36966;48.064;-0.792;2022-11-27T13:35:40;17.80;58.30
50955;DHT22;36966;48.064;-0.792;2022-11-27T13:38:10;17.80;58.20
50955;DHT22;36966;48.064;-0.792;2022-11-27T13:40:40;17.80;58.10
50955;DHT22;36966;48.064;-0.792;2022-11-27T13:43:04;17.80;58.10
50955;DHT22;36966;48.064;-0.792;2022-11-27T13:45:27;17.80;58.20
50955;DHT22;36966;48.064;-0.792;2022-11-27T13:47:49;17.90;58.10
50955;DHT22;36966;48.064;-0.792;2022-11-27T13:50:11;17.80;58.10
50955;DHT22;36966;48.064;-0.792;2022-11-27T13:52:31;17.80;58.20
50955;DHT22;36966;48.064;-0.792;2022-11-27T13:54:58;17.80;58.30
50955;DHT22;36966;48.064;-0.792;2022-11-27T13:57:20;17.80;58.10
50955;DHT22;36966;48.064;-0.792;2022-11-27T13:59:39;17.80;58.10
50955;DHT22;36966;48.064;-0.792;2022-11-27T14:02:02;17.80;58.00
50955;DHT22;36966;48.064;-0.792;2022-11-27T14:04:24;17.80;58.00
50955;DHT22;36966;48.064;-0.792;2022-11-27T14:06:53;17.80;58.00
50955;DHT22;36966;48.064;-0.792;2022-11-27T14:09:14;17.80;58.80
50955;DHT22;36966;48.064;-0.792;2022-11-27T14:11:42;17.80;58.90
50955;DHT22;36966;48.064;-0.792;2022-11-27T14:14:11;17.80;58.80
50955;DHT22;36966;48.064;-0.792;2022-11-27T14:16:34;17.80;58.80
50955;DHT22;36966;48.064;-0.792;2022-11-27T14:18:57;17.80;58.70
50955;DHT22;36966;48.064;-0.792;2022-11-27T14:21:41;17.80;58.70
50955;DHT22;36966;48.064;-0.792;2022-11-27T14:24:02;17.80;58.60
50955;DHT22;36966;48.064;-0.792;2022-11-27T14:26:24;17.80;58.80
50955;DHT22;36966;48.064;-0.792;2022-11-27T14:28:56;17.70;58.80
50955;DHT22;36966;48.064;-0.792;2022-11-27T14:31:31;17.70;58.80
50955;DHT22;36966;48.064;-0.792;2022-11-27T14:33:51;17.70;58.70
50955;DHT22;36966;48.064;-0.792;2022-11-27T14:36:25;17.70;58.80
50955;DHT22;36966;48.064;-0.792;2022-11-27T14:38:46;17.70;58.50
50955;DHT22;36966;48.064;-0.792;2022-11-27T14:41:15;17.70;58.40
50955;DHT22;36966;48.064;-0.792;2022-11-27T14:43:35;17.70;58.50
50955;DHT22;36966;48.064;-0.792;2022-11-27T14:45:57;17.70;58.40
50955;DHT22;36966;48.064;-0.792;2022-11-27T14:48:44;17.70;58.80
50955;DHT22;36966;48.064;-0.792;2022-11-27T14:51:02;17.70;58.70
50955;DHT22;36966;48.064;-0.792;2022-11-27T14:53:23;17.70;58.60
50955;DHT22;36966;48.064;-0.792;2022-11-27T14:55:43;17.70;58.50
50955;DHT22;36966;48.064;-0.792;2022-11-27T14:58:03;17.80;58.40
50955;DHT22;36966;48.064;-0.792;2022-11-27T15:00:26;17.80;58.40
50955;DHT22;36966;48.064;-0.792;2022-11-27T15:02:47;17.80;58.40
50955;DHT22;36966;48.064;-0.792;2022-11-27T15:05:15;17.80;58.30
50955;DHT22;36966;48.064;-0.792;2022-11-27T15:07:35;17.80;58.20
50955;DHT22;36966;48.064;-0.792;2022-11-27T15:09:57;17.80;58.30
50955;DHT22;36966;48.064;-0.792;2022-11-27T15:12:20;17.80;58.20
50955;DHT22;36966;48.064;-0.792;2022-11-27T15:15:30;17.80;58.20
50955;DHT22;36966;48.064;-0.792;2022-11-27T15:17:29;17.80;58.10
50955;DHT22;36966;48.064;-0.792;2022-11-27T15:19:49;17.70;58.30
50955;DHT22;36966;48.064;-0.792;2022-11-27T15:22:15;17.80;59.60
50955;DHT22;36966;48.064;-0.792;2022-11-27T15:24:36;17.70;59.30
50955;DHT22;36966;48.064;-0.792;2022-11-27T15:29:33;17.80;58.40
50955;DHT22;36966;48.064;-0.792;2022-11-27T15:31:55;17.80;58.30
50955;DHT22;36966;48.064;-0.792;2022-11-27T15:39:18;17.80;58.20
50955;DHT22;36966;48.064;-0.792;2022-11-27T15:42:09;17.80;58.00
50955;DHT22;36966;48.064;-0.792;2022-11-27T15:44:30;17.80;57.80
50955;DHT22;36966;48.064;-0.792;2022-11-27T15:46:50;17.80;57.80
50955;DHT22;36966;48.064;-0.792;2022-11-27T15:49:13;17.80;57.70
50955;DHT22;36966;48.064;-0.792;2022-11-27T15:51:33;17.80;57.60
50955;DHT22;36966;48.064;-0.792;2022-11-27T15:53:52;17.80;57.50
50955;DHT22;36966;48.064;-0.792;2022-11-27T15:56:11;17.80;57.50
50955;DHT22;36966;48.064;-0.792;2022-11-27T15:58:31;17.80;57.40
50955;DHT22;36966;48.064;-0.792;2022-11-27T16:00:50;17.80;57.40
50955;DHT22;36966;48.064;-0.792;2022-11-27T16:03:09;17.80;57.30
50955;DHT22;36966;48.064;-0.792;2022-11-27T16:05:28;17.80;57.30
50955;DHT22;36966;48.064;-0.792;2022-11-27T16:07:48;17.90;57.30
50955;DHT22;36966;48.064;-0.792;2022-11-27T16:10:07;17.80;57.20
50955;DHT22;36966;48.064;-0.792;2022-11-27T16:12:27;17.80;57.20
50955;DHT22;36966;48.064;-0.792;2022-11-27T16:14:46;17.90;57.10
50955;DHT22;36966;48.064;-0.792;2022-11-27T16:17:07;17.80;57.10
50955;DHT22;36966;48.064;-0.792;2022-11-27T16:19:26;17.80;57.10
50955;DHT22;36966;48.064;-0.792;2022-11-27T16:21:46;17.80;57.10
50955;DHT22;36966;48.064;-0.792;2022-11-27T16:24:06;17.90;57.00
50955;DHT22;36966;48.064;-0.792;2022-11-27T16:26:26;17.80;57.00
50955;DHT22;36966;48.064;-0.792;2022-11-27T16:28:46;17.80;56.90